createdAt,value
2019-05-17T00:01:07.354Z,17.25
2019-05-17T00:03:39.299Z,16.37
2019-05-17T00:06:11.360Z,16.90
2019-05-17T00:08:43.229Z,16.37
2019-05-17T00:11:16.793Z,16.05
2019-05-17T00:13:48.276Z,17.12
2019-05-17T00:16:19.823Z,16.50
2019-05-17T00:18:53.019Z,16.17
2019-05-17T00:21:27.523Z,16.55
2019-05-17T00:23:58.890Z,16.57
2019-05-17T00:29:02.299Z,17.35
2019-05-17T00:31:33.954Z,17.70
2019-05-17T00:34:07.362Z,17.70
2019-05-17T00:36:38.499Z,17.07
2019-05-17T00:41:42.327Z,17.35
2019-05-17T00:44:13.867Z,16.65
2019-05-17T00:46:46.802Z,17.40
2019-05-17T00:49:18.413Z,17.10
2019-05-17T00:51:50.271Z,16.87
2019-05-17T00:54:22.133Z,17.02
2019-05-17T00:56:56.538Z,16.73
2019-05-17T00:59:27.273Z,18.20
2019-05-17T01:01:59.041Z,17.67
2019-05-17T01:04:30.591Z,18.20
2019-05-17T01:07:02.757Z,17.12
2019-05-17T01:09:36.487Z,18.30
2019-05-17T01:12:07.395Z,17.50
2019-05-17T01:17:09.475Z,17.32
2019-05-17T01:19:41.952Z,18.30
2019-05-17T01:22:13.607Z,17.23
2019-05-17T01:24:46.269Z,18.92
2019-05-17T01:27:17.873Z,18.57
2019-05-17T01:29:49.387Z,18.67
2019-05-17T01:32:21.353Z,18.15
2019-05-17T01:34:53.109Z,19.23
2019-05-17T01:37:24.558Z,18.37
2019-05-17T01:39:57.437Z,18.42
2019-05-17T01:42:30.023Z,18.75
2019-05-17T01:45:01.884Z,19.65
2019-05-17T01:47:33.741Z,19.50
2019-05-17T01:50:07.253Z,19.77
2019-05-17T01:52:39.003Z,19.12
2019-05-17T01:55:10.751Z,18.80
2019-05-17T01:57:42.305Z,20.25
2019-05-17T02:00:17.284Z,19.50
2019-05-17T02:02:50.435Z,18.15
2019-05-17T02:05:21.885Z,18.77
2019-05-17T02:07:53.429Z,20.68
2019-05-17T02:10:27.029Z,19.87
2019-05-17T02:12:58.787Z,20.32
2019-05-17T02:15:30.677Z,19.50
2019-05-17T02:18:02.410Z,21.17
2019-05-17T02:20:34.056Z,21.48
2019-05-17T02:23:07.386Z,19.67
2019-05-17T02:25:39.121Z,19.73
2019-05-17T02:28:12.234Z,18.42
2019-05-17T02:30:44.298Z,19.27
2019-05-17T02:33:16.323Z,19.15
2019-05-17T02:35:47.673Z,20.35
2019-05-17T02:38:22.264Z,18.95
2019-05-17T02:40:53.763Z,18.77
2019-05-17T02:43:26.228Z,20.17
2019-05-17T02:45:57.883Z,20.45
2019-05-17T02:48:29.443Z,19.32
2019-05-17T02:51:03.534Z,19.45
2019-05-17T02:53:34.496Z,20.40
2019-05-17T02:56:06.039Z,19.62
2019-05-17T02:58:37.593Z,18.82
2019-05-17T03:03:43.445Z,18.77
2019-05-17T03:06:13.857Z,18.87
2019-05-17T03:08:46.357Z,18.77
2019-05-17T03:11:18.331Z,19.30
2019-05-17T03:13:52.401Z,18.25
2019-05-17T03:16:23.894Z,18.42
2019-05-17T03:18:55.486Z,18.52
2019-05-17T03:21:27.303Z,18.70
2019-05-17T03:23:58.762Z,18.75
2019-05-17T03:26:32.815Z,17.37
2019-05-17T03:29:03.810Z,17.37
2019-05-17T03:31:42.680Z,18.35
2019-05-17T03:34:15.725Z,18.60
2019-05-17T03:36:46.593Z,18.62
2019-05-17T03:39:16.465Z,18.65
2019-05-17T03:41:48.115Z,18.05
2019-05-17T03:44:22.552Z,16.97
2019-05-17T03:46:53.418Z,18.30
2019-05-17T03:49:25.022Z,17.65
2019-05-17T03:51:57.442Z,17.85
2019-05-17T03:54:32.266Z,17.40
2019-05-17T03:57:03.267Z,18.35
2019-05-17T03:59:35.025Z,18.55
2019-05-17T04:02:07.254Z,16.62
2019-05-17T04:04:38.944Z,17.90
2019-05-17T04:07:12.710Z,19.40
2019-05-17T04:09:43.920Z,19.67
2019-05-17T04:12:15.450Z,17.42
2019-05-17T04:14:47.104Z,17.67
2019-05-17T04:17:18.860Z,16.93
2019-05-17T04:19:53.350Z,17.90
2019-05-17T04:22:24.831Z,17.12
2019-05-17T04:24:56.483Z,18.32
2019-05-17T04:27:28.241Z,18.95
2019-05-17T04:30:03.315Z,19.35
2019-05-17T04:32:33.307Z,17.23
2019-05-17T04:35:06.083Z,17.55
2019-05-17T04:37:38.615Z,18.17
2019-05-17T04:40:13.618Z,17.25
2019-05-17T04:42:44.787Z,19.05
2019-05-17T04:45:16.690Z,17.87
2019-05-17T04:47:48.755Z,18.87
2019-05-17T04:50:23.097Z,18.50
2019-05-17T04:52:54.626Z,18.12
2019-05-17T04:55:26.392Z,18.45
2019-05-17T04:57:57.834Z,19.95
2019-05-17T05:00:29.597Z,18.37
2019-05-17T05:03:03.724Z,18.40
2019-05-17T05:05:34.741Z,17.85
2019-05-17T05:08:06.717Z,19.92
2019-05-17T05:10:38.774Z,18.85
2019-05-17T05:13:13.195Z,17.37
2019-05-17T05:15:44.815Z,16.93
2019-05-17T05:18:16.395Z,17.12
2019-05-17T05:20:48.058Z,17.95
2019-05-17T05:23:23.548Z,17.35
2019-05-17T05:25:53.624Z,20.88
2019-05-17T05:28:25.069Z,18.35
2019-05-17T05:30:56.822Z,17.75
2019-05-17T05:33:28.472Z,16.23
2019-05-17T05:36:02.018Z,16.42
2019-05-17T05:38:33.521Z,16.93
2019-05-17T05:41:06.508Z,16.40
2019-05-17T05:43:38.063Z,16.27
2019-05-17T05:46:11.621Z,16.82
2019-05-17T05:48:43.319Z,17.25
2019-05-17T05:51:15.183Z,16.87
2019-05-17T05:53:47.625Z,16.23
2019-05-17T05:56:19.211Z,16.12
2019-05-17T05:58:52.300Z,16.37
2019-05-17T06:01:24.906Z,15.43
2019-05-17T06:03:56.323Z,15.83
2019-05-17T06:06:27.871Z,16.57
2019-05-17T06:08:59.735Z,16.77
2019-05-17T06:11:32.295Z,16.55
2019-05-17T06:14:03.860Z,16.05
2019-05-17T06:16:35.624Z,17.15
2019-05-17T06:19:07.275Z,15.60
2019-05-17T06:21:39.142Z,15.90
2019-05-17T06:24:11.886Z,15.85
2019-05-17T06:26:43.576Z,34.15
2019-05-17T06:29:15.562Z,18.20
2019-05-17T06:31:47.095Z,16.65
2019-05-17T06:34:18.788Z,15.58
2019-05-17T06:36:52.627Z,16.55
2019-05-17T06:39:23.691Z,14.87
2019-05-17T06:41:56.063Z,15.23
2019-05-17T06:44:27.616Z,17.62
2019-05-17T06:46:59.478Z,16.80
2019-05-17T06:49:31.802Z,15.05
2019-05-17T06:52:05.407Z,15.70
2019-05-17T06:54:36.896Z,15.60
2019-05-17T06:57:08.757Z,15.03
2019-05-17T06:59:40.617Z,15.15
2019-05-17T07:02:12.883Z,15.20
2019-05-17T07:04:44.334Z,14.90
2019-05-17T07:07:30.482Z,15.10
2019-05-17T07:10:02.120Z,14.98
2019-05-17T07:12:33.738Z,15.63
2019-05-17T07:15:07.442Z,14.70
2019-05-17T07:17:40.063Z,14.05
2019-05-17T07:20:12.083Z,15.48
2019-05-17T07:22:43.740Z,14.55
2019-05-17T07:25:15.495Z,14.65
2019-05-17T07:27:47.046Z,15.43
2019-05-17T07:30:19.690Z,14.07
2019-05-17T07:32:51.175Z,14.73
2019-05-17T07:35:22.729Z,15.45
2019-05-17T07:37:54.693Z,14.95
2019-05-17T07:40:26.350Z,15.30
2019-05-17T07:43:10.111Z,16.50
2019-05-17T07:45:31.806Z,13.58
2019-05-17T07:48:03.481Z,16.48
2019-05-17T07:50:35.217Z,14.73
2019-05-17T07:53:09.967Z,14.30
2019-05-17T07:55:41.063Z,14.05
2019-05-17T07:58:12.848Z,14.40
2019-05-17T08:00:44.805Z,15.00
2019-05-17T08:03:20.966Z,14.00
2019-05-17T08:05:53.338Z,14.35
2019-05-17T08:08:25.100Z,14.03
2019-05-17T08:10:56.654Z,14.47
2019-05-17T08:13:31.244Z,14.35
2019-05-17T08:16:01.909Z,15.23
2019-05-17T08:18:33.367Z,14.50
2019-05-17T08:21:05.218Z,14.65
2019-05-17T08:23:36.977Z,14.85
2019-05-17T08:26:10.668Z,13.90
2019-05-17T08:28:42.431Z,14.47
2019-05-17T08:31:14.196Z,13.78
2019-05-17T08:33:45.845Z,14.18
2019-05-17T08:36:17.397Z,14.18
2019-05-17T08:38:50.132Z,14.05
2019-05-17T08:41:21.837Z,13.03
2019-05-17T08:43:53.696Z,13.95
2019-05-17T08:46:25.142Z,13.62
2019-05-17T08:48:56.800Z,12.65
2019-05-17T08:51:30.474Z,13.75
2019-05-17T08:54:02.154Z,13.62
2019-05-17T08:56:33.820Z,13.62
2019-05-17T08:59:05.467Z,13.93
2019-05-17T09:01:39.208Z,14.10
2019-05-17T09:04:10.724Z,14.33
2019-05-17T09:06:42.385Z,14.05
2019-05-17T09:09:14.133Z,13.60
2019-05-17T09:11:45.792Z,13.13
2019-05-17T09:14:17.145Z,13.10
2019-05-17T09:16:50.505Z,12.55
2019-05-17T09:19:22.095Z,14.87
2019-05-17T09:21:53.846Z,13.40
2019-05-17T09:24:25.816Z,13.43
2019-05-17T09:26:59.729Z,12.73
2019-05-17T09:29:30.464Z,14.00
2019-05-17T09:32:02.409Z,12.63
2019-05-17T09:34:33.861Z,13.45
2019-05-17T09:37:05.716Z,13.13
2019-05-17T09:39:37.166Z,13.98
2019-05-17T09:42:10.346Z,13.43
2019-05-17T09:44:41.913Z,13.53
2019-05-17T09:47:13.881Z,11.90
2019-05-17T09:49:45.533Z,11.73
2019-05-17T09:52:19.849Z,11.70
2019-05-17T09:54:50.884Z,12.18
2019-05-17T09:57:22.337Z,13.20
2019-05-17T09:59:55.961Z,12.07
2019-05-17T10:02:27.387Z,11.20
2019-05-17T10:05:00.032Z,10.40
2019-05-17T10:07:31.630Z,12.18
2019-05-17T10:10:05.227Z,11.33
2019-05-17T10:12:36.876Z,11.03
2019-05-17T10:15:09.998Z,11.08
2019-05-17T10:17:41.823Z,10.48
2019-05-17T10:20:13.890Z,10.50
2019-05-17T10:22:45.339Z,10.40
2019-05-17T10:25:16.896Z,9.50
2019-05-17T10:27:49.815Z,10.15
2019-05-17T10:30:21.910Z,9.65
2019-05-17T10:32:53.905Z,9.48
2019-05-17T10:35:25.461Z,9.83
2019-05-17T10:37:59.341Z,9.33
2019-05-17T10:40:30.510Z,10.08
2019-05-17T10:43:01.960Z,10.58
2019-05-17T10:45:33.919Z,10.78
2019-05-17T10:48:05.681Z,10.63
2019-05-17T10:50:37.025Z,10.78
2019-05-17T10:53:10.033Z,10.40
2019-05-17T10:55:41.876Z,9.68
2019-05-17T10:58:13.524Z,10.15
2019-05-17T11:00:45.079Z,10.18
2019-05-17T11:03:20.378Z,14.98
2019-05-17T11:05:53.002Z,17.87
2019-05-17T11:08:24.559Z,10.50
2019-05-17T11:10:56.418Z,9.53
2019-05-17T11:13:28.281Z,9.75
2019-05-17T11:15:59.615Z,10.18
2019-05-17T11:18:31.681Z,10.58
2019-05-17T11:21:03.589Z,10.93
2019-05-17T11:23:35.197Z,10.03
2019-05-17T11:26:06.749Z,9.65
2019-05-17T11:28:39.643Z,10.10
2019-05-17T11:31:11.594Z,9.20
2019-05-17T11:33:43.461Z,9.43
2019-05-17T11:36:14.807Z,9.10
2019-05-17T11:38:46.456Z,9.83
2019-05-17T11:41:21.480Z,9.75
2019-05-17T11:43:51.543Z,9.43
2019-05-17T11:46:35.257Z,8.60
2019-05-17T11:48:56.870Z,9.15
2019-05-17T11:51:29.137Z,8.95
2019-05-17T11:54:01.198Z,9.78
2019-05-17T11:56:32.983Z,8.53
2019-05-17T11:59:04.619Z,8.50
2019-05-17T12:01:36.781Z,9.63
2019-05-17T12:04:08.434Z,8.80
2019-05-17T12:06:40.293Z,8.05
2019-05-17T12:09:12.152Z,8.33
2019-05-17T12:11:43.612Z,8.43
2019-05-17T12:14:15.262Z,8.95
2019-05-17T12:16:47.012Z,11.60
2019-05-17T12:19:18.464Z,10.00
2019-05-17T12:21:50.117Z,8.88
2019-05-17T12:24:21.467Z,9.50
2019-05-17T12:26:53.226Z,9.25
2019-05-17T12:29:25.183Z,8.13
2019-05-17T12:31:56.842Z,9.35
2019-05-17T12:34:28.771Z,9.03
2019-05-17T12:37:00.558Z,9.55
2019-05-17T12:39:32.223Z,8.83
2019-05-17T12:42:04.442Z,9.63
2019-05-17T12:44:37.296Z,9.55
2019-05-17T12:47:08.920Z,9.28
2019-05-17T12:49:40.890Z,9.98
2019-05-17T12:52:13.504Z,10.45
2019-05-17T12:54:44.908Z,9.58
2019-05-17T12:57:16.568Z,10.10
2019-05-17T12:59:48.430Z,11.35
2019-05-17T13:02:20.107Z,9.68
2019-05-17T13:04:52.367Z,8.95
2019-05-17T13:07:24.224Z,9.08
2019-05-17T13:09:55.864Z,8.78
2019-05-17T13:12:27.633Z,9.03
2019-05-17T13:14:59.080Z,9.85
2019-05-17T13:17:30.728Z,9.93
2019-05-17T13:20:03.544Z,8.63
2019-05-17T14:06:08.404Z,9.63
2019-05-17T14:08:40.123Z,9.63
2019-05-17T14:11:11.696Z,10.93
2019-05-17T14:13:43.239Z,9.05
2019-05-17T14:16:14.991Z,9.93
2019-05-17T14:21:56.088Z,9.63
2019-05-17T14:24:27.634Z,10.08
2019-05-17T14:26:59.598Z,9.73
2019-05-17T14:29:31.362Z,9.20
2019-05-17T14:32:03.510Z,11.20
2019-05-17T14:34:35.179Z,11.73
2019-05-17T14:37:07.610Z,11.30
2019-05-17T14:39:39.314Z,9.88
2019-05-17T14:42:11.068Z,9.43
2019-05-17T14:44:42.718Z,9.53
2019-05-17T14:47:14.676Z,9.05
2019-05-17T14:49:46.127Z,10.35
2019-05-17T14:52:17.582Z,10.40
2019-05-17T14:54:49.128Z,10.80
2019-05-17T14:57:21.424Z,10.13
2019-05-17T14:59:53.155Z,10.50
2019-05-17T15:02:25.719Z,9.98
2019-05-17T15:04:57.290Z,11.20
2019-05-17T15:07:29.152Z,9.85
2019-05-17T15:10:00.909Z,10.43
2019-05-17T15:12:32.566Z,8.83
2019-05-17T15:15:05.958Z,13.48
2019-05-17T15:17:37.586Z,9.35
2019-05-17T15:20:09.453Z,10.55
2019-05-17T15:22:40.920Z,10.20
2019-05-17T15:25:12.784Z,9.23
2019-05-17T15:27:45.882Z,10.30
2019-05-17T15:30:19.706Z,10.05
2019-05-17T15:32:51.443Z,10.15
2019-05-17T15:35:23.085Z,10.23
2019-05-17T15:37:54.744Z,10.48
2019-05-17T15:40:26.296Z,11.35
2019-05-17T15:42:58.154Z,10.75
2019-05-17T15:45:29.708Z,10.90
2019-05-17T15:48:01.574Z,9.68
2019-05-17T15:50:33.534Z,10.43
2019-05-17T15:53:05.698Z,13.90
2019-05-17T15:55:37.251Z,13.25
2019-05-17T15:58:10.647Z,11.53
2019-05-17T16:00:42.265Z,10.85
2019-05-17T16:03:14.214Z,10.85
2019-05-17T16:05:45.823Z,10.72
2019-05-17T16:08:17.984Z,10.88
2019-05-17T16:10:49.842Z,11.20
2019-05-17T16:13:21.498Z,10.72
2019-05-17T16:15:53.463Z,11.03
2019-05-17T16:18:25.013Z,10.58
2019-05-17T16:20:57.388Z,11.10
2019-05-17T16:23:29.035Z,11.18
2019-05-17T16:26:00.898Z,12.18
2019-05-17T16:28:32.550Z,11.88
2019-05-17T16:31:04.410Z,10.58
2019-05-17T16:33:36.271Z,11.65
2019-05-17T16:36:08.142Z,10.78
2019-05-17T16:38:39.586Z,11.00
2019-05-17T16:41:11.647Z,9.85
2019-05-17T16:43:43.201Z,10.35
2019-05-17T16:46:15.059Z,11.10
2019-05-17T16:48:46.817Z,10.40
2019-05-17T16:51:18.800Z,10.70
2019-05-17T16:53:50.533Z,10.65
2019-05-17T16:56:23.215Z,11.80
2019-05-17T16:58:55.282Z,12.60
2019-05-17T17:01:27.352Z,11.22
2019-05-17T17:03:58.998Z,12.05
2019-05-17T17:06:30.960Z,11.22
2019-05-17T17:09:02.411Z,10.75
2019-05-17T17:11:35.191Z,11.83
2019-05-17T17:14:07.257Z,13.20
2019-05-17T17:16:38.807Z,11.33
2019-05-17T17:19:10.566Z,10.98
2019-05-17T17:21:42.225Z,11.48
2019-05-17T17:24:13.769Z,10.30
2019-05-17T17:26:45.117Z,11.97
2019-05-17T17:29:17.190Z,11.85
2019-05-17T17:31:48.841Z,13.05
2019-05-17T17:34:20.391Z,11.48
2019-05-17T17:36:52.151Z,11.10
2019-05-17T17:39:23.802Z,10.58
2019-05-17T17:41:55.768Z,11.20
2019-05-17T17:44:27.422Z,13.83
2019-05-17T17:46:59.279Z,12.15
2019-05-17T17:49:31.139Z,11.68
2019-05-17T17:52:03.147Z,11.10
2019-05-17T17:54:34.554Z,11.73
2019-05-17T17:57:06.021Z,12.30
2019-05-17T17:59:37.762Z,11.15
2019-05-17T18:02:09.767Z,11.78
2019-05-17T18:04:41.284Z,12.33
2019-05-17T18:07:13.035Z,10.93
2019-05-17T18:09:44.904Z,11.00
2019-05-17T18:12:16.767Z,11.00
2019-05-17T18:14:48.412Z,10.90
2019-05-17T18:17:20.175Z,11.05
2019-05-17T18:19:52.239Z,11.45
2019-05-17T18:22:24.089Z,12.00
2019-05-17T18:24:55.948Z,11.38
2019-05-17T18:27:27.913Z,11.35
2019-05-17T18:29:59.572Z,11.65
2019-05-17T18:32:31.627Z,10.93
2019-05-17T18:35:04.417Z,12.30
2019-05-17T18:37:36.065Z,12.33
2019-05-17T18:40:07.740Z,11.48
2019-05-17T18:42:39.405Z,12.90
2019-05-17T18:45:11.410Z,11.50
2019-05-17T18:47:43.613Z,11.85
2019-05-17T18:50:16.799Z,11.48
2019-05-17T18:52:48.764Z,12.78
2019-05-17T18:55:20.320Z,11.30
2019-05-17T18:57:51.971Z,11.20
2019-05-17T19:00:23.932Z,11.45
2019-05-17T19:02:55.940Z,11.53
2019-05-17T19:05:27.855Z,10.43
2019-05-17T19:07:59.622Z,9.60
2019-05-17T19:10:31.472Z,9.43
2019-05-17T19:13:03.033Z,9.20
2019-05-17T19:15:34.882Z,9.73
2019-05-17T19:18:06.542Z,9.40
2019-05-17T19:20:38.397Z,10.63
2019-05-17T19:23:09.950Z,9.25
2019-05-17T19:25:42.747Z,9.18
2019-05-17T19:28:14.717Z,9.20
2019-05-17T19:30:46.455Z,8.88
2019-05-17T19:33:18.424Z,9.53
2019-05-17T19:35:49.976Z,8.08
2019-05-17T19:38:21.724Z,8.65
2019-05-17T19:40:53.398Z,9.73
2019-05-17T19:43:25.357Z,8.78
2019-05-17T19:45:56.892Z,9.48
2019-05-17T19:48:28.755Z,8.38
2019-05-17T19:51:00.325Z,8.43
2019-05-17T19:53:32.730Z,9.28
2019-05-17T19:56:04.232Z,8.40
2019-05-17T19:58:35.882Z,8.53
2019-05-17T20:01:07.865Z,8.50
2019-05-17T20:03:39.201Z,8.93
2019-05-17T20:06:10.855Z,8.70
2019-05-17T20:08:42.831Z,8.68
2019-05-17T20:11:14.791Z,10.40
2019-05-17T20:13:46.639Z,8.58
2019-05-17T20:16:18.289Z,8.78
2019-05-17T20:18:49.738Z,8.60
2019-05-17T20:23:51.510Z,9.03
2019-05-17T20:26:24.088Z,8.00
2019-05-17T20:28:55.949Z,9.53
2019-05-17T20:31:27.606Z,11.25
2019-05-17T20:34:00.179Z,8.78
2019-05-17T20:36:31.936Z,8.40
2019-05-17T20:39:04.818Z,8.25
2019-05-17T20:41:36.582Z,8.60
2019-05-17T20:44:08.129Z,8.60
2019-05-17T20:46:39.785Z,8.63
2019-05-17T20:49:11.439Z,8.73
2019-05-17T20:51:43.549Z,8.38
2019-05-17T20:54:14.953Z,9.13
2019-05-17T20:56:48.084Z,8.13
2019-05-17T20:59:20.029Z,8.58
2019-05-17T21:01:52.075Z,8.90
2019-05-17T21:04:23.623Z,8.28
2019-05-17T21:06:55.181Z,8.20
2019-05-17T21:09:26.830Z,8.93
2019-05-17T21:11:58.386Z,8.78
2019-05-17T21:14:30.148Z,8.25
2019-05-17T21:17:02.003Z,8.40
2019-05-17T21:19:33.554Z,8.50
2019-05-17T21:22:05.210Z,8.20
2019-05-17T21:24:36.675Z,8.75
2019-05-17T21:27:09.339Z,8.35
2019-05-17T21:29:41.710Z,8.85
2019-05-17T21:32:13.373Z,8.55
2019-05-17T21:34:44.950Z,7.65
2019-05-17T21:37:16.983Z,8.88
2019-05-17T21:39:48.538Z,8.60
2019-05-17T21:42:21.119Z,8.40
2019-05-17T21:44:52.569Z,8.20
2019-05-17T21:47:24.117Z,8.65
2019-05-17T21:49:56.792Z,9.73
2019-05-17T21:52:29.717Z,8.73
2019-05-17T21:55:01.129Z,8.50
2019-05-17T21:57:33.093Z,8.73
2019-05-17T22:00:07.847Z,8.20
2019-05-17T22:02:41.318Z,8.53
2019-05-17T22:05:12.938Z,8.10
2019-05-17T22:07:44.634Z,8.73
2019-05-17T22:10:16.277Z,7.80
2019-05-17T22:12:47.931Z,7.78
2019-05-17T22:15:20.514Z,8.15
2019-05-17T22:17:52.270Z,7.83
2019-05-17T22:20:23.878Z,8.50
2019-05-17T22:22:55.890Z,8.05
2019-05-17T22:25:27.537Z,7.75
2019-05-17T22:27:59.920Z,8.15
2019-05-17T22:30:31.668Z,7.80
2019-05-17T22:33:03.938Z,7.70
2019-05-17T22:35:35.502Z,7.65
2019-05-17T22:38:07.246Z,8.20
2019-05-17T22:40:38.804Z,7.83
2019-05-17T22:43:10.455Z,7.45
2019-05-17T22:45:42.031Z,7.50
2019-05-17T22:48:13.767Z,7.47
2019-05-17T22:50:46.753Z,7.75
2019-05-17T22:53:18.417Z,7.22
2019-05-17T22:55:50.372Z,7.12
2019-05-17T22:58:22.229Z,7.47
2019-05-17T23:00:53.882Z,7.78
2019-05-17T23:05:56.170Z,7.53
2019-05-17T23:08:27.830Z,7.58
2019-05-17T23:10:59.386Z,7.17
2019-05-17T23:16:06.506Z,7.40
2019-05-17T23:18:38.024Z,6.87
2019-05-17T23:21:09.582Z,7.70
2019-05-17T23:23:41.437Z,6.45
2019-05-17T23:26:13.098Z,6.35
2019-05-17T23:28:44.754Z,7.28
2019-05-17T23:31:16.201Z,6.97
2019-05-17T23:33:47.551Z,6.72
2019-05-17T23:36:19.310Z,7.08
2019-05-17T23:38:50.655Z,7.60
2019-05-17T23:41:22.320Z,6.80
2019-05-17T23:43:53.959Z,7.20
2019-05-17T23:46:25.205Z,6.30
2019-05-17T23:48:56.967Z,6.40
2019-05-17T23:51:28.515Z,7.08
2019-05-17T23:56:30.805Z,6.83
2019-05-17T23:59:03.892Z,7.08
